Flight Track Log - Related Links

Times and Time Zones

All times are in EDT time to prevent confusion due to time zone crossing. See the EJA922 flight status page for this flight to view local times or setup timezone preferences in your user account.

Time Position Orientation Groundspeed Altitude Reporting Facility
EDT Latitude Longitude Course Direction KTS MPH feet Rate Location/Type
Wed 18:54:47 39.1333 -94.5833 23° Northeast 176 203 1,400  Level Kansas TRACON
Wed 18:55:33 39.1769 -94.5592 23° Northeast 222 255 4,000 2,000 Climbing Kansas Center
Wed 18:56:35 39.2342 -94.5022 38° Northeast 273 314 5,000 2,177 Climbing Kansas Center
Wed 18:57:37 39.3081 -94.4878 North 245 282 8,500 2,613 Climbing Kansas Center
Wed 18:58:39 39.3694 -94.5297 332° Northwest 262 302 10,400 1,488 Climbing Kansas Center
Wed 18:59:42 39.4611 -94.5914 333° Northwest 334 384 11,600 1,056 Climbing Kansas Center
Wed 19:00:44 39.5503 -94.6519 332° Northwest 375 432 12,600 1,113 Climbing Kansas Center
Wed 19:01:46 39.6603 -94.7250 333° Northwest 397 457 13,900 677 Climbing Kansas Center
Wed 19:02:48 39.7575 -94.7914 332° Northwest 410 472 14,000 48 Climbing Kansas Center
Wed 19:03:50 39.8717 -94.8686 333° Northwest 413 475 14,000  Level Kansas Center
Wed 19:04:52 39.9708 -94.9283 335° Northwest 413 475 14,000  Level Kansas Center
Wed 19:05:54 40.0972 -94.9553 351° North 413 475 14,000  Level Kansas Center
Wed 19:06:56 40.2064 -94.9761 352° North 413 475 14,000  Level Kansas Center
Wed 19:07:58 40.3333 -94.9969 353° North 411 473 14,000  Level Kansas Center
Wed 19:09:00 40.4422 -95.0189 351° North 412 474 14,000  Level Kansas Center
Wed 19:09:58 40.5750 -95.0300 356° North 414 476 14,000  Level Minneapolis Center
Wed 19:10:40 40.6517 -95.0478 350° North 411 473 14,000  Level Minneapolis Center
Wed 19:11:20 40.7081 -95.0708 343° North 412 474 14,000 -471 Level Minneapolis Center
Wed 19:12:22 40.7950 -95.1186 337° Northwest 381 438 13,200 -823 Descending Minneapolis Center
Wed 19:13:24 40.8586 -95.2192 310° West 364 419 12,300 -968 Descending Minneapolis Center
Wed 19:14:26 40.9225 -95.3264 308° West 367 422 11,200 -1,210 Descending Minneapolis Center
Wed 19:15:28 40.9833 -95.4278 308° West 306 352 9,800 -1,424 Descending Minneapolis Center
Wed 19:16:45 41.0239 -95.5336 297° West 248 285 7,900 -1,500 Descending Minneapolis Center
Wed 19:17:32 41.0417 -95.6033 289° West 265 305 6,700 -1,525 Descending Minneapolis Center
Wed 19:18:47 41.0886 -95.6914 305° West 259 298 4,800 -1,191 Descending Minneapolis Center
Wed 19:19:48 41.1469 -95.7428 326° Northwest 186 214 4,000 -639 Descending Minneapolis Center
Wed 19:20:49 41.1872 -95.7797 325° Northwest 173 199 3,500 -744 Descending Minneapolis Center
Wed 19:21:49 41.2275 -95.8219 322° Northwest 188 216 2,500 -942 Descending Minneapolis Center
Wed 19:22:50 41.2722 -95.8639 325° Northwest 177 204 1,600 -703 Descending Minneapolis Center
Wed 19:23:57 41.3047 -95.8933 326° Northwest 167 192 1,000 -537 Descending Minneapolis Center
Wed 19:25:00 41.3000 -95.8833 323° Northwest  Level FlightAware

Login

Don't have an account? Register now (free) for customized features, flight alerts, and more!